Time;durP1;ratioP1;P1;durP2;ratioP2;P2;SDS_P1;SDS_P2;PMS_P1;PMS_P2;Temp;Humidity;BMP_temperature;BMP_pressure;BME280_temperature;BME280_humidity;BME280_pressure;Samples;Min_cycle;Max_cycle;Signal;HPM_P1;HPM_P2
2023/07/27 00:01:45;;;;;;;4.72;3.17;;;;;;;10.90;100.00;98273.38;4173019;28;20493;-73
2023/07/27 00:03:45;;;;;;;3.53;2.75;;;;;;;10.87;100.00;98266.66;4171905;28;20125;-73
2023/07/27 00:05:45;;;;;;;3.53;2.70;;;;;;;10.87;100.00;98271.41;4172493;28;20053;-72
2023/07/27 00:07:45;;;;;;;4.25;2.78;;;;;;;10.77;100.00;98267.38;4172852;28;20473;-72
2023/07/27 00:09:46;;;;;;;3.35;2.45;;;;;;;10.73;100.00;98263.00;4172543;28;20520;-72
2023/07/27 00:11:48;;;;;;;4.00;2.90;;;;;;;10.59;100.00;98261.72;4172682;28;20076;-72
2023/07/27 00:13:48;;;;;;;3.90;2.90;;;;;;;10.61;100.00;98255.78;4171297;28;20074;-72
2023/07/27 00:15:48;;;;;;;4.30;2.67;;;;;;;10.61;100.00;98258.56;4175196;28;20049;-72
2023/07/27 00:17:49;;;;;;;3.83;3.25;;;;;;;10.55;100.00;98263.66;4175560;28;20041;-72
2023/07/27 00:19:49;;;;;;;4.68;3.05;;;;;;;10.48;100.00;98263.59;4175352;28;20553;-72
2023/07/27 00:21:49;;;;;;;4.80;3.38;;;;;;;10.45;100.00;98261.59;4176285;28;20056;-73
2023/07/27 00:23:50;;;;;;;3.75;3.10;;;;;;;10.41;100.00;98258.00;4174925;28;20481;-72
2023/07/27 00:25:50;;;;;;;5.13;3.22;;;;;;;10.40;100.00;98253.63;4175164;28;20041;-73
2023/07/27 00:27:50;;;;;;;4.90;3.00;;;;;;;10.41;100.00;98250.50;4175330;28;20456;-72
2023/07/27 00:29:50;;;;;;;5.13;3.13;;;;;;;10.39;100.00;98244.53;4174864;28;20454;-73
2023/07/27 00:31:51;;;;;;;4.35;2.80;;;;;;;10.37;100.00;98249.69;4175679;28;20045;-72
2023/07/27 00:33:52;;;;;;;3.17;2.80;;;;;;;10.39;100.00;98246.53;4174734;28;20033;-72
2023/07/27 00:35:56;;;;;;;3.30;2.60;;;;;;;10.38;100.00;98248.50;4175446;28;20053;-72
2023/07/27 00:37:56;;;;;;;3.70;2.92;;;;;;;10.39;100.00;98252.06;4174266;28;20045;-72
2023/07/27 00:39:57;;;;;;;5.25;3.20;;;;;;;10.29;100.00;98248.03;4175113;28;20059;-72
2023/07/27 00:41:57;;;;;;;4.65;3.00;;;;;;;10.20;100.00;98246.72;4175118;28;20045;-73
2023/07/27 00:43:57;;;;;;;6.28;2.92;;;;;;;10.17;100.00;98247.47;4174433;28;20048;-72
2023/07/27 00:45:58;;;;;;;4.30;3.10;;;;;;;10.16;100.00;98237.59;4175315;28;20049;-73
2023/07/27 00:47:58;;;;;;;4.22;3.35;;;;;;;10.04;100.00;98236.72;4175250;28;20071;-72
2023/07/27 00:49:58;;;;;;;5.50;3.35;;;;;;;9.99;100.00;98239.00;4175229;28;20072;-72
2023/07/27 00:52:05;;;;;;;5.35;3.40;;;;;;;9.91;100.00;98240.13;4175052;28;20048;-72
2023/07/27 00:54:08;;;;;;;4.05;2.97;;;;;;;9.99;100.00;98236.25;4174125;28;20045;-73
2023/07/27 00:56:09;;;;;;;3.97;2.90;;;;;;;10.08;100.00;98228.44;4174893;28;20033;-73
2023/07/27 00:58:11;;;;;;;4.40;3.30;;;;;;;10.09;100.00;98235.53;4174695;28;20029;-73
2023/07/27 01:00:12;;;;;;;4.57;3.65;;;;;;;10.06;100.00;98236.31;4175166;28;20068;-73
2023/07/27 01:02:13;;;;;;;4.47;3.27;;;;;;;10.00;100.00;98229.53;4174614;28;20080;-73
2023/07/27 01:04:14;;;;;;;5.38;3.88;;;;;;;10.02;100.00;98219.72;4174375;28;20059;-73
2023/07/27 01:06:15;;;;;;;5.45;3.35;;;;;;;10.02;100.00;98216.94;4174986;28;20024;-73
2023/07/27 01:08:15;;;;;;;4.07;3.30;;;;;;;9.98;100.00;98213.34;4174925;28;20025;-73
2023/07/27 01:10:16;;;;;;;4.82;4.00;;;;;;;9.90;100.00;98219.97;4174942;28;20037;-73
2023/07/27 01:12:34;;;;;;;5.25;3.92;;;;;;;9.82;100.00;98223.84;4174721;28;20025;-73
2023/07/27 01:14:45;;;;;;;4.75;3.42;;;;;;;9.83;100.00;98222.66;4173724;28;20043;-73
2023/07/27 01:16:58;;;;;;;5.47;3.30;;;;;;;9.88;100.00;98203.00;4175015;28;20053;-73
2023/07/27 01:19:26;;;;;;;6.78;3.55;;;;;;;9.92;100.00;98212.09;4173683;28;20076;-73
2023/07/27 01:21:33;;;;;;;4.13;3.30;;;;;;;9.88;100.00;98216.00;4173690;28;20044;-72
2023/07/27 01:24:10;;;;;;;7.72;3.80;;;;;;;9.91;100.00;98216.03;4173079;28;20114;-72
2023/07/27 01:26:49;;;;;;;2.88;2.65;;;;;;;9.99;100.00;98203.88;4170099;28;20155;-73
2023/07/27 01:29:19;;;;;;;4.75;3.00;;;;;;;10.03;100.00;98204.72;4139263;28;20140;-73
2023/07/27 01:31:21;;;;;;;3.75;3.33;;;;;;;10.04;100.00;98197.22;4173546;28;20044;-72
2023/07/27 01:33:31;;;;;;;6.25;3.85;;;;;;;10.00;100.00;98188.09;4173141;28;20509;-73
2023/07/27 01:36:11;;;;;;;4.80;3.50;;;;;;;9.94;100.00;98200.69;4174046;28;20040;-72
2023/07/27 01:38:13;;;;;;;3.75;3.30;;;;;;;9.89;100.00;98188.00;4151575;28;20072;-73
2023/07/27 01:40:14;;;;;;;5.30;3.60;;;;;;;9.86;100.00;98186.00;4174525;28;20341;-73
2023/07/27 01:42:16;;;;;;;5.85;3.63;;;;;;;9.89;100.00;98182.47;4173950;28;20028;-73
2023/07/27 01:44:17;;;;;;;6.33;3.70;;;;;;;9.84;100.00;98180.03;4172932;28;20557;-72
2023/07/27 01:46:18;;;;;;;6.22;3.58;;;;;;;9.88;100.00;98177.31;4173235;28;20340;-73
2023/07/27 01:48:21;;;;;;;4.43;3.50;;;;;;;9.88;100.00;98180.09;4173694;28;20075;-73
2023/07/27 01:50:22;;;;;;;4.82;3.90;;;;;;;9.88;100.00;98172.59;4173352;28;20051;-73
2023/07/27 01:52:25;;;;;;;7.07;3.50;;;;;;;9.95;100.00;98166.34;4173606;28;20355;-73
2023/07/27 01:54:26;;;;;;;8.25;4.35;;;;;;;10.02;100.00;98171.94;4174211;28;20037;-73
2023/07/27 01:56:29;;;;;;;5.05;3.55;;;;;;;10.00;100.00;98166.75;4173636;28;20453;-73
2023/07/27 01:58:30;;;;;;;;;;;;;;;10.08;100.00;98170.38;4174587;28;20088;-73
2023/07/27 02:00:31;;;;;;;6.00;3.38;;;;;;;10.10;100.00;98157.78;4174072;28;19909;-73
2023/07/27 02:02:31;;;;;;;5.72;3.55;;;;;;;10.14;100.00;98166.09;4173086;28;20122;-73
2023/07/27 02:04:32;;;;;;;4.10;3.25;;;;;;;10.15;100.00;98162.16;4173521;28;20043;-72
2023/07/27 02:06:33;;;;;;;4.70;3.33;;;;;;;10.22;100.00;98162.25;4172859;28;20408;-73
2023/07/27 02:08:33;;;;;;;4.80;3.38;;;;;;;10.28;100.00;98148.88;4174024;28;20067;-73
2023/07/27 02:10:35;;;;;;;5.20;3.25;;;;;;;10.33;100.00;98151.25;4172855;28;20500;-72
2023/07/27 02:12:41;;;;;;;4.43;3.45;;;;;;;10.37;100.00;98146.56;4172556;28;20431;-73
2023/07/27 02:14:59;;;;;;;5.65;3.50;;;;;;;10.39;100.00;98146.97;4173087;28;20036;-73
2023/07/27 02:17:04;;;;;;;4.03;3.38;;;;;;;10.42;100.00;98151.72;4173736;28;20045;-73
2023/07/27 02:19:06;;;;;;;4.68;3.50;;;;;;;10.44;100.00;98138.31;4173478;28;20033;-73
2023/07/27 02:21:07;;;;;;;4.93;3.97;;;;;;;10.44;100.00;98132.78;4173424;28;20037;-73
2023/07/27 02:23:10;;;;;;;5.00;3.70;;;;;;;10.49;100.00;98128.84;4172789;28;20052;-73
2023/07/27 02:25:11;;;;;;;4.65;3.28;;;;;;;10.49;100.00;98129.63;4173112;28;20043;-73
2023/07/27 02:27:11;;;;;;;6.53;4.22;;;;;;;10.50;100.00;98128.44;4173542;28;20076;-73
2023/07/27 02:29:11;;;;;;;4.88;3.75;;;;;;;10.52;100.00;98115.06;4173776;28;20405;-73
2023/07/27 02:31:12;;;;;;;4.93;3.47;;;;;;;10.57;100.00;98120.19;4173263;28;20044;-72
2023/07/27 02:33:12;;;;;;;4.88;4.00;;;;;;;10.59;100.00;98122.56;4173328;28;20128;-73
2023/07/27 02:35:12;;;;;;;4.15;3.50;;;;;;;10.58;100.00;98118.22;4173637;28;20556;-73
2023/07/27 02:37:13;;;;;;;4.00;3.33;;;;;;;10.64;100.00;98119.47;4173034;28;20432;-73
2023/07/27 02:39:13;;;;;;;6.32;3.97;;;;;;;10.68;100.00;98115.53;4173852;28;20102;-73
2023/07/27 02:41:13;;;;;;;5.72;3.92;;;;;;;10.71;100.00;98121.47;4173014;28;20051;-73
2023/07/27 02:43:14;;;;;;;5.18;3.42;;;;;;;10.74;100.00;98123.44;4172611;28;20049;-73
2023/07/27 02:45:14;;;;;;;3.85;3.10;;;;;;;10.74;100.00;98123.44;4173993;28;20358;-73
2023/07/27 02:47:14;;;;;;;4.35;3.17;;;;;;;10.71;100.00;98115.94;4173714;28;20363;-73
2023/07/27 02:49:15;;;;;;;3.88;3.20;;;;;;;10.65;100.00;98109.97;4173137;28;20045;-73
2023/07/27 02:51:15;;;;;;;4.72;3.63;;;;;;;10.62;100.00;98113.53;4173299;28;20045;-73
2023/07/27 02:53:16;;;;;;;5.40;4.13;;;;;;;10.60;100.00;98110.34;4169960;28;20468;-73
2023/07/27 02:55:16;;;;;;;4.88;3.45;;;;;;;10.58;100.00;98105.19;4172876;28;20033;-73
2023/07/27 02:57:16;;;;;;;5.07;2.85;;;;;;;10.63;100.00;98110.38;4173212;28;20063;-73
2023/07/27 02:59:17;;;;;;;4.07;3.10;;;;;;;10.74;100.00;98110.41;4173439;28;20072;-73
2023/07/27 03:01:18;;;;;;;4.45;3.15;;;;;;;10.86;100.00;98101.78;4171206;28;20048;-73
2023/07/27 03:03:18;;;;;;;3.20;2.40;;;;;;;11.05;100.00;98106.19;4172105;28;20045;-73
2023/07/27 03:05:18;;;;;;;4.30;3.00;;;;;;;11.22;100.00;98110.22;4172923;28;20060;-72
2023/07/27 03:07:19;;;;;;;4.15;2.60;;;;;;;11.38;100.00;98113.41;4173458;28;20461;-72
2023/07/27 03:09:19;;;;;;;3.58;2.75;;;;;;;11.51;100.00;98120.19;4172595;28;20376;-72
2023/07/27 03:11:19;;;;;;;3.55;2.75;;;;;;;11.63;100.00;98119.00;4172930;28;20384;-73
2023/07/27 03:13:20;;;;;;;3.00;2.50;;;;;;;11.72;100.00;98107.53;4172141;28;20033;-72
2023/07/27 03:15:20;;;;;;;3.50;2.65;;;;;;;11.84;100.00;98114.72;4173347;28;20462;-72
2023/07/27 03:17:20;;;;;;;4.63;2.67;;;;;;;11.87;100.00;98114.72;4172868;28;20067;-72
2023/07/27 03:19:21;;;;;;;3.38;2.50;;;;;;;11.92;100.00;98110.75;4172975;28;20091;-72
2023/07/27 03:21:21;;;;;;;3.75;2.22;;;;;;;11.96;100.00;98117.88;4172884;28;20120;-72
2023/07/27 03:23:22;;;;;;;4.85;2.50;;;;;;;12.00;100.00;98113.13;4171004;28;20037;-72
2023/07/27 03:25:22;;;;;;;4.45;2.65;;;;;;;11.99;100.00;98110.75;4172893;28;20064;-72
2023/07/27 03:27:22;;;;;;;3.17;2.28;;;;;;;12.05;100.00;98111.94;4171254;28;20041;-72
2023/07/27 03:29:23;;;;;;;4.97;2.97;;;;;;;12.07;100.00;98106.78;4172666;28;20037;-72
2023/07/27 03:31:26;;;;;;;5.25;2.72;;;;;;;12.08;100.00;98116.69;4167058;28;20128;-72
2023/07/27 03:33:26;;;;;;;3.20;2.47;;;;;;;12.09;100.00;98096.91;4163983;28;20049;-73
2023/07/27 03:35:26;;;;;;;4.15;2.58;;;;;;;12.11;100.00;98096.50;4165820;28;20591;-72
2023/07/27 03:37:27;;;;;;;4.10;2.70;;;;;;;12.08;100.00;98095.31;4172350;28;20029;-72
2023/07/27 03:39:27;;;;;;;3.08;2.45;;;;;;;12.12;100.00;98103.63;4172332;28;20247;-72
2023/07/27 03:41:28;;;;;;;4.18;2.85;;;;;;;12.17;100.00;98089.38;4171926;28;20048;-72
2023/07/27 03:43:28;;;;;;;3.30;2.80;;;;;;;12.31;100.00;98099.63;4171571;28;20043;-72
2023/07/27 03:45:28;;;;;;;7.25;2.38;;;;;;;12.35;100.00;98087.34;4173079;28;20076;-72
2023/07/27 03:47:29;;;;;;;5.60;2.53;;;;;;;12.46;100.00;98084.53;4170242;28;20063;-72
2023/07/27 03:49:29;;;;;;;5.10;2.78;;;;;;;12.46;100.00;98087.31;4173708;28;20056;-72
2023/07/27 03:51:29;;;;;;;4.43;2.75;;;;;;;12.50;100.00;98079.78;4174863;28;20044;-72
2023/07/27 03:53:30;;;;;;;3.88;2.80;;;;;;;12.46;100.00;98072.66;4174887;28;20445;-73
2023/07/27 03:55:30;;;;;;;4.32;2.80;;;;;;;12.57;100.00;98081.72;4175440;28;20108;-72
2023/07/27 03:57:32;;;;;;;4.82;3.00;;;;;;;12.60;100.00;98072.63;4175662;28;20037;-72
2023/07/27 03:59:33;;;;;;;4.82;2.70;;;;;;;12.59;100.00;98082.16;4175526;28;20052;-72
2023/07/27 04:01:33;;;;;;;5.55;2.67;;;;;;;12.60;100.00;98073.41;4175387;28;20114;-72
2023/07/27 04:03:34;;;;;;;3.72;2.55;;;;;;;12.58;100.00;98077.78;4174679;28;20362;-72
2023/07/27 04:05:34;;;;;;;4.72;2.63;;;;;;;12.55;100.00;98076.59;4175808;28;20029;-72
2023/07/27 04:07:34;;;;;;;2.60;2.35;;;;;;;12.54;100.00;98083.34;4170840;28;20049;-73
2023/07/27 04:09:35;;;;;;;3.38;2.70;;;;;;;12.53;100.00;98078.19;4172413;28;20045;-72
2023/07/27 04:11:35;;;;;;;5.40;2.97;;;;;;;12.58;100.00;98078.56;4173383;28;20163;-73
2023/07/27 04:13:37;;;;;;;4.82;2.78;;;;;;;12.56;100.00;98080.94;4174700;28;20513;-72
2023/07/27 04:15:38;;;;;;;6.35;3.15;;;;;;;12.52;100.00;98082.94;4175193;28;20041;-72
2023/07/27 04:17:38;;;;;;;4.55;3.13;;;;;;;12.48;100.00;98079.38;4175034;28;20052;-72
2023/07/27 04:19:38;;;;;;;3.50;2.72;;;;;;;12.50;100.00;98074.25;4173155;28;20444;-72
2023/07/27 04:21:39;;;;;;;5.20;2.85;;;;;;;12.45;100.00;98066.31;4173950;28;20073;-73
2023/07/27 04:23:39;;;;;;;5.05;2.70;;;;;;;12.44;100.00;98063.94;4174540;28;20532;-73
2023/07/27 04:25:39;;;;;;;4.32;3.10;;;;;;;12.48;100.00;98070.25;4175046;28;20036;-73
2023/07/27 04:27:39;;;;;;;4.20;2.80;;;;;;;12.56;100.00;98072.63;4175455;28;20059;-72
2023/07/27 04:29:40;;;;;;;3.67;2.40;;;;;;;12.64;100.00;98059.50;4174636;28;20174;-72
2023/07/27 04:31:40;;;;;;;3.85;2.47;;;;;;;12.72;100.00;98069.41;4174908;28;20040;-72
2023/07/27 04:33:40;;;;;;;5.05;2.60;;;;;;;12.74;100.00;98066.22;4174277;28;20053;-72
2023/07/27 04:35:41;;;;;;;5.45;2.88;;;;;;;12.80;100.00;98067.38;4174918;28;20068;-73
2023/07/27 04:37:41;;;;;;;3.40;2.80;;;;;;;12.87;100.00;98067.38;4174298;28;20139;-72
2023/07/27 04:39:41;;;;;;;2.97;2.58;;;;;;;12.95;100.00;98063.34;4175084;28;20047;-72
2023/07/27 04:41:42;;;;;;;3.42;2.85;;;;;;;13.01;100.00;98060.97;4174876;28;20040;-72
2023/07/27 04:43:42;;;;;;;4.03;2.40;;;;;;;13.05;100.00;98059.72;4173464;28;20106;-72
2023/07/27 04:45:43;;;;;;;3.08;2.45;;;;;;;13.09;100.00;98063.31;4171750;28;20083;-72
2023/07/27 04:47:43;;;;;;;3.03;2.45;;;;;;;13.09;100.00;98062.50;4174142;28;20040;-72
2023/07/27 04:49:45;;;;;;;3.38;2.53;;;;;;;13.13;100.00;98058.50;4173841;28;20063;-72
2023/07/27 04:51:45;;;;;;;3.25;2.40;;;;;;;13.16;100.00;98062.47;4173604;28;20124;-72
2023/07/27 04:53:46;;;;;;;4.25;2.78;;;;;;;13.21;100.00;98053.72;4173289;28;20476;-72
2023/07/27 04:55:46;;;;;;;3.70;2.72;;;;;;;13.22;100.00;98058.09;4140623;28;20081;-72
2023/07/27 04:57:46;;;;;;;5.35;2.38;;;;;;;13.20;100.00;98055.72;4174954;28;20146;-73
2023/07/27 04:59:47;;;;;;;6.03;2.78;;;;;;;13.20;100.00;98052.94;4174792;28;20436;-72
2023/07/27 05:01:47;;;;;;;4.22;2.70;;;;;;;13.20;100.00;98046.59;4173308;28;20453;-73
2023/07/27 05:03:47;;;;;;;3.65;2.70;;;;;;;13.25;100.00;98042.63;4173473;28;20261;-73
2023/07/27 05:05:47;;;;;;;5.03;2.78;;;;;;;13.25;100.00;98045.38;4173685;28;20647;-73
2023/07/27 05:07:48;;;;;;;5.07;2.50;;;;;;;13.26;100.00;98044.19;4174384;28;20106;-73
2023/07/27 05:09:48;;;;;;;3.70;2.88;;;;;;;13.29;100.00;98043.38;4171766;28;20063;-72
2023/07/27 05:11:48;;;;;;;4.60;2.67;;;;;;;13.29;100.00;98029.47;4173172;28;20516;-73
2023/07/27 05:13:50;;;;;;;5.35;2.78;;;;;;;13.31;100.00;98033.41;4174413;28;20098;-73
2023/07/27 05:15:51;;;;;;;4.47;2.78;;;;;;;13.29;100.00;98029.47;4173998;28;20045;-73
2023/07/27 05:17:51;;;;;;;2.95;2.30;;;;;;;13.31;100.00;98027.06;4173338;28;20105;-72
2023/07/27 05:19:53;;;;;;;3.13;2.45;;;;;;;13.34;100.00;98038.19;4174248;28;20048;-72
2023/07/27 05:21:53;;;;;;;3.20;2.63;;;;;;;13.37;100.00;98028.22;4173446;28;20435;-73
2023/07/27 05:23:54;;;;;;;7.10;2.60;;;;;;;13.41;100.00;98023.44;4173788;28;20048;-72
2023/07/27 05:25:54;;;;;;;4.38;2.70;;;;;;;13.47;100.00;98027.34;4174124;28;20036;-72
2023/07/27 05:27:54;;;;;;;4.97;2.50;;;;;;;13.52;100.00;98032.50;4174226;28;20037;-72
2023/07/27 05:29:55;;;;;;;3.92;2.70;;;;;;;13.57;100.00;98025.69;4174143;28;20048;-72
2023/07/27 05:31:55;;;;;;;3.65;2.58;;;;;;;13.63;100.00;98024.06;4173905;28;20041;-73
2023/07/27 05:33:56;;;;;;;3.17;2.70;;;;;;;13.70;100.00;98024.00;4173486;28;20653;-73
2023/07/27 05:35:56;;;;;;;3.70;2.60;;;;;;;13.81;100.00;98018.34;4173447;28;20401;-72
2023/07/27 05:37:57;;;;;;;4.43;2.78;;;;;;;13.88;100.00;98021.88;4173894;28;20308;-72
2023/07/27 05:39:57;;;;;;;3.53;2.80;;;;;;;13.91;100.00;98020.28;4174373;28;20429;-72
2023/07/27 05:41:57;;;;;;;5.00;2.72;;;;;;;13.93;100.00;98003.97;4174077;28;20111;-73
2023/07/27 05:43:58;;;;;;;3.45;2.70;;;;;;;13.95;100.00;98019.03;4173813;28;20543;-73
2023/07/27 05:45:58;;;;;;;3.72;2.70;;;;;;;13.93;100.00;98007.53;4174160;28;20175;-72
2023/07/27 05:47:58;;;;;;;6.95;3.30;;;;;;;13.97;100.00;98019.38;4173583;28;20133;-72
2023/07/27 05:49:59;;;;;;;5.53;3.05;;;;;;;13.97;100.00;98013.03;4173944;28;20584;-72
2023/07/27 05:51:59;;;;;;;5.13;2.70;;;;;;;13.96;100.00;98014.25;4173955;28;20064;-72
2023/07/27 05:54:00;;;;;;;3.20;2.78;;;;;;;14.00;100.00;98010.25;4173996;28;20136;-73
2023/07/27 05:56:00;;;;;;;6.18;2.95;;;;;;;14.01;100.00;98003.47;4173580;28;20465;-73
2023/07/27 05:58:00;;;;;;;3.38;2.60;;;;;;;14.12;100.00;97997.78;4173363;28;20045;-73
2023/07/27 06:00:01;;;;;;;3.80;3.08;;;;;;;14.16;100.00;97998.56;4173930;28;20040;-73
2023/07/27 06:02:01;;;;;;;3.17;2.88;;;;;;;14.20;100.00;97999.31;4173846;28;20098;-73
2023/07/27 06:04:03;;;;;;;5.28;2.65;;;;;;;14.24;100.00;97990.94;4173317;28;20064;-73
2023/07/27 06:06:03;;;;;;;3.53;3.03;;;;;;;14.25;100.00;97995.28;4173176;28;20029;-73
2023/07/27 06:08:03;;;;;;;3.80;2.70;;;;;;;14.33;100.00;98002.34;4173637;28;20036;-73
2023/07/27 06:10:04;;;;;;;3.28;2.33;;;;;;;14.37;100.00;98002.31;4173895;28;20476;-73
2023/07/27 06:12:11;;;;;;;4.18;2.80;;;;;;;14.38;100.00;98001.09;4171958;28;20063;-73
2023/07/27 06:14:11;;;;;;;3.65;2.70;;;;;;;14.41;100.00;97998.28;4172866;28;20017;-73
2023/07/27 06:16:12;;;;;;;2.90;2.50;;;;;;;14.44;100.00;97996.66;4173539;28;20032;-73
2023/07/27 06:18:12;;;;;;;3.72;2.40;;;;;;;14.42;100.00;97997.06;4173138;28;20029;-73
2023/07/27 06:20:12;;;;;;;4.15;2.70;;;;;;;14.44;100.00;97999.44;4173510;28;20053;-73
2023/07/27 06:22:13;;;;;;;3.50;3.03;;;;;;;14.48;100.00;98003.81;4173530;28;20049;-73
2023/07/27 06:24:13;;;;;;;3.45;2.67;;;;;;;14.50;100.00;97998.59;4172520;28;20021;-73
2023/07/27 06:26:13;;;;;;;4.75;2.95;;;;;;;14.53;100.00;97996.97;4173504;28;20412;-73
2023/07/27 06:28:13;;;;;;;2.83;2.50;;;;;;;14.58;100.00;98002.09;4173193;28;20025;-73
2023/07/27 06:30:15;;;;;;;4.15;3.00;;;;;;;14.58;100.00;98002.09;4173992;28;20051;-73
2023/07/27 06:32:15;;;;;;;3.50;2.80;;;;;;;14.58;100.00;97994.53;4172992;28;20055;-73
2023/07/27 06:34:16;;;;;;;4.15;2.90;;;;;;;14.65;100.00;97990.09;4172772;28;20144;-73
2023/07/27 06:36:17;;;;;;;3.90;2.55;;;;;;;14.69;100.00;97996.38;4173885;28;20033;-73
2023/07/27 06:38:17;;;;;;;4.10;2.75;;;;;;;14.78;100.00;97999.44;4172453;28;20029;-73
2023/07/27 06:40:18;;;;;;;4.20;2.95;;;;;;;14.83;100.00;97988.66;4172407;28;20036;-73
2023/07/27 06:42:19;;;;;;;3.88;3.10;;;;;;;14.89;100.00;97984.19;4173162;28;20037;-73
2023/07/27 06:44:19;;;;;;;4.63;3.13;;;;;;;14.87;100.00;97980.22;4172899;28;20036;-73
2023/07/27 06:46:20;;;;;;;4.70;3.17;;;;;;;14.83;100.00;97987.84;4174576;28;20518;-73
2023/07/27 06:48:21;;;;;;;3.97;3.00;;;;;;;14.80;100.00;97985.88;4172575;28;20056;-73
2023/07/27 06:50:21;;;;;;;3.40;3.10;;;;;;;14.82;100.00;97991.84;4173638;28;20377;-73
2023/07/27 06:52:21;;;;;;;4.63;3.30;;;;;;;14.81;100.00;97993.03;4172526;28;20068;-73
2023/07/27 06:54:22;;;;;;;4.43;3.15;;;;;;;14.76;100.00;97988.72;4172729;28;20385;-73
2023/07/27 06:56:22;;;;;;;3.85;3.00;;;;;;;14.78;100.00;97997.44;4173614;28;20049;-73
2023/07/27 06:58:22;;;;;;;3.65;2.90;;;;;;;14.78;100.00;97994.66;4173169;28;20353;-73
2023/07/27 07:00:23;;;;;;;5.35;3.10;;;;;;;14.76;100.00;97988.72;4173513;28;20094;-73
2023/07/27 07:02:23;;;;;;;4.72;3.53;;;;;;;14.78;100.00;97989.09;4172755;28;20537;-73
2023/07/27 07:04:23;;;;;;;3.40;2.90;;;;;;;14.82;100.00;97992.63;4172536;28;20064;-73
2023/07/27 07:06:24;;;;;;;4.78;3.70;;;;;;;14.80;100.00;97995.03;4173069;28;20072;-73
2023/07/27 07:08:25;;;;;;;9.63;3.72;;;;;;;14.80;100.00;97989.47;4172522;28;20437;-73
2023/07/27 07:10:25;;;;;;;3.83;3.08;;;;;;;14.83;100.00;97994.22;4173358;28;20033;-73
2023/07/27 07:12:25;;;;;;;5.05;3.28;;;;;;;14.81;100.00;97993.03;4172595;28;20044;-73
2023/07/27 07:14:26;;;;;;;5.93;3.70;;;;;;;14.77;100.00;98001.44;4172586;28;20045;-73
2023/07/27 07:16:26;;;;;;;5.72;2.97;;;;;;;14.75;100.00;97992.72;4172849;28;20041;-73
2023/07/27 07:18:26;;;;;;;5.28;3.20;;;;;;;14.77;100.00;97990.31;4172599;28;20496;-73
2023/07/27 07:20:27;;;;;;;4.70;3.28;;;;;;;14.77;100.00;97992.31;4172974;28;20086;-73
2023/07/27 07:22:27;;;;;;;3.97;3.38;;;;;;;14.77;100.00;97995.09;4172820;28;20045;-73
2023/07/27 07:24:27;;;;;;;3.35;2.92;;;;;;;14.75;100.00;98001.09;4171499;28;20114;-73
2023/07/27 07:26:28;;;;;;;4.30;2.97;;;;;;;14.72;100.00;97996.31;4172341;28;20041;-73
2023/07/27 07:28:28;;;;;;;4.75;2.97;;;;;;;14.69;100.00;97997.19;4172873;28;20556;-73
2023/07/27 07:30:28;;;;;;;4.93;3.65;;;;;;;14.70;100.00;97998.75;4172790;28;20385;-73
2023/07/27 07:32:28;;;;;;;5.90;3.45;;;;;;;14.65;100.00;98004.81;4172368;28;20051;-73
2023/07/27 07:34:33;;;;;;;6.10;3.40;;;;;;;14.67;100.00;98004.38;4172378;28;20049;-73
2023/07/27 07:36:33;;;;;;;4.28;3.33;;;;;;;14.62;100.00;97997.25;4172345;28;20125;-72
2023/07/27 07:38:34;;;;;;;3.92;3.53;;;;;;;14.60;100.00;97994.13;4172493;28;20068;-72
2023/07/27 07:40:34;;;;;;;5.18;3.53;;;;;;;14.59;100.00;97993.31;4172705;28;20398;-73
2023/07/27 07:42:34;;;;;;;3.78;3.35;;;;;;;14.55;100.00;97989.78;4171804;28;20409;-73
2023/07/27 07:44:35;;;;;;;4.30;3.63;;;;;;;14.53;100.00;97994.97;4173278;28;20128;-73
2023/07/27 07:46:35;;;;;;;3.72;3.15;;;;;;;14.54;100.00;97984.63;4171490;28;20493;-72
2023/07/27 07:48:35;;;;;;;4.80;3.30;;;;;;;14.55;100.00;97994.56;4172439;28;20473;-73
2023/07/27 07:50:38;;;;;;;3.67;3.38;;;;;;;14.53;100.00;97988.63;4173043;28;20179;-72
2023/07/27 07:52:39;;;;;;;4.57;3.45;;;;;;;14.57;100.00;97994.97;4170849;28;20050;-73
2023/07/27 07:54:39;;;;;;;5.07;3.45;;;;;;;14.55;100.00;97992.56;4172475;28;20045;-73
2023/07/27 07:56:39;;;;;;;4.45;3.63;;;;;;;14.55;100.00;97987.00;4172781;28;20032;-73
2023/07/27 07:58:40;;;;;;;6.25;3.72;;;;;;;14.58;100.00;97988.97;4171240;28;20120;-73
2023/07/27 08:00:40;;;;;;;4.63;3.90;;;;;;;14.57;100.00;97973.47;4170934;28;20041;-73
2023/07/27 08:02:41;;;;;;;4.00;3.58;;;;;;;14.58;100.00;97961.13;4170936;28;20059;-73
2023/07/27 08:04:41;;;;;;;5.20;4.03;;;;;;;14.68;100.00;97964.19;4172781;28;20597;-73
2023/07/27 08:06:42;;;;;;;5.63;3.60;;;;;;;14.71;100.00;97958.56;4172550;28;20222;-73
2023/07/27 08:08:42;;;;;;;4.00;3.60;;;;;;;14.74;100.00;97946.59;4170665;28;20041;-73
2023/07/27 08:10:43;;;;;;;4.85;3.85;;;;;;;14.77;100.00;97947.75;4172432;28;20468;-73
2023/07/27 08:12:43;;;;;;;4.35;3.95;;;;;;;14.82;100.00;97952.88;4171141;28;20048;-73
2023/07/27 08:14:43;;;;;;;6.15;3.55;;;;;;;14.82;100.00;97955.66;4171841;28;20033;-73
2023/07/27 08:16:43;;;;;;;5.13;4.20;;;;;;;14.83;100.00;97954.44;4173326;28;20041;-73
2023/07/27 08:18:44;;;;;;;3.90;3.50;;;;;;;14.85;100.00;97958.38;4172311;28;20041;-73
2023/07/27 08:20:44;;;;;;;5.88;4.22;;;;;;;14.88;100.00;97960.31;4171711;28;20130;-73
2023/07/27 08:22:44;;;;;;;6.20;3.53;;;;;;;14.95;100.00;97950.28;4171307;28;20126;-72
2023/07/27 08:24:45;;;;;;;3.63;3.33;;;;;;;14.93;100.00;97947.13;4172396;28;20509;-71
2023/07/27 08:26:45;;;;;;;5.70;3.30;;;;;;;14.95;100.00;97945.50;4171699;28;20136;-72
2023/07/27 08:28:46;;;;;;;4.15;3.50;;;;;;;14.96;100.00;97944.28;4171490;28;20443;-72
2023/07/27 08:30:47;;;;;;;5.47;3.38;;;;;;;14.96;100.00;97949.84;4171666;28;20140;-72
2023/07/27 08:32:47;;;;;;;3.97;3.30;;;;;;;14.98;100.00;97929.97;4171186;28;20041;-72
2023/07/27 08:34:47;;;;;;;3.83;3.17;;;;;;;15.03;100.00;97940.63;4171523;28;20719;-72
2023/07/27 08:36:50;;;;;;;3.85;3.45;;;;;;;15.01;100.00;97943.81;4174879;28;20048;-72
2023/07/27 08:38:51;;;;;;;7.07;3.00;;;;;;;15.01;100.00;97932.69;4174758;28;20037;-72
2023/07/27 08:40:59;;;;;;;3.40;3.10;;;;;;;15.00;100.00;97931.09;4174997;28;20049;-72
2023/07/27 08:43:02;;;;;;;4.45;3.08;;;;;;;14.97;100.00;97918.00;4174088;28;20120;-72
2023/07/27 08:45:03;;;;;;;5.13;3.83;;;;;;;15.02;100.00;97920.31;4174549;28;20068;-72
2023/07/27 08:47:04;;;;;;;3.25;2.85;;;;;;;15.01;100.00;97918.75;4175026;28;20045;-72
2023/07/27 08:49:06;;;;;;;4.43;3.42;;;;;;;15.05;100.00;97918.69;4174988;28;20504;-72
2023/07/27 08:51:07;;;;;;;4.47;3.10;;;;;;;15.05;100.00;97908.34;4174950;28;20048;-72
2023/07/27 08:53:08;;;;;;;3.78;2.83;;;;;;;15.06;100.00;97903.53;4174622;28;20071;-72
2023/07/27 08:55:08;;;;;;;4.10;2.78;;;;;;;15.09;100.00;97908.28;4175322;28;20366;-72
2023/07/27 08:57:08;;;;;;;5.28;2.70;;;;;;;15.12;100.00;97913.78;4175099;28;20040;-72
2023/07/27 08:59:09;;;;;;;3.47;3.17;;;;;;;15.13;100.00;97911.78;4174709;28;20084;-72
2023/07/27 09:01:09;;;;;;;3.10;2.65;;;;;;;15.12;100.00;97904.66;4175153;28;20044;-72
2023/07/27 09:03:09;;;;;;;3.40;3.00;;;;;;;15.08;100.00;97907.50;4174783;28;20037;-72
2023/07/27 09:05:11;;;;;;;3.17;2.80;;;;;;;15.08;100.00;97903.94;4174584;28;20413;-72
2023/07/27 09:07:12;;;;;;;3.43;3.03;;;;;;;15.06;100.00;97893.22;4174947;28;20065;-72
2023/07/27 09:09:13;;;;;;;6.18;2.83;;;;;;;15.04;100.00;97898.41;4174993;28;20729;-72
2023/07/27 09:11:19;;;;;;;3.40;2.70;;;;;;;15.06;100.00;97889.63;4174642;28;20040;-73
2023/07/27 09:13:19;;;;;;;3.70;2.65;;;;;;;15.06;100.00;97892.41;4171330;28;20423;-73
2023/07/27 09:15:20;;;;;;;3.58;2.75;;;;;;;15.07;100.00;97886.44;4174426;28;20056;-72
2023/07/27 09:17:20;;;;;;;3.08;2.78;;;;;;;15.12;100.00;97885.94;4174343;28;20041;-72
2023/07/27 09:19:20;;;;;;;3.38;2.67;;;;;;;15.08;100.00;97876.84;4174402;28;20048;-72
2023/07/27 09:21:21;;;;;;;4.05;2.80;;;;;;;15.13;100.00;97879.16;4174228;28;20044;-72
2023/07/27 09:23:22;;;;;;;5.53;3.25;;;;;;;15.16;100.00;97871.97;4173426;28;20114;-72
2023/07/27 09:25:22;;;;;;;3.05;2.70;;;;;;;15.15;100.00;97864.81;4174399;28;20053;-72
2023/07/27 09:27:23;;;;;;;3.95;3.20;;;;;;;15.17;100.00;97876.31;4173852;28;20385;-73